LTACLTBH

Guest
Details From LTAC - ESENBOGA
To LTBH - CANAKKALE
Flight Number -
Tags generated
Created
Modified
Stats Distance 326 nm / 603 km
Max Altitude 34,700 ft / 10,577 m
Waypoints 8
Social Downloads 1
Likes 0
Share VATSIM

Download

Looking for another format? Having issues loading an existing format? Contact us
Advertisement - Login to hide

Notes

Basic altitude profile: - Ascent Rate: 2500ft/min - Ascent Speed: 250kts - Cruise Altitude: 300ft - Cruise Speed: 420kts - Descent Rate: 1500ft/min - Descent Speed: 250kts Options: - Use NATs: yes - Use PACOTS: yes - Use low airways: yes - Use high airways: yes

Route

LTAC YAVRU UA4 BKZ N604 BIG W92 CNK LTBH

ID Type Via Altitude Latitude Longitude Leg Dist Tot Dist Heading (true) Name
O LTAC APT - 0 ft / 0 m 40.12828˚ 32.99540˚ - 0 nm - ESENBOGA
YAVRU FIX - 20,300 ft / 6,187 m 40.58222˚ 31.83278˚ 59 nm 59 nm 298° / 297° -
ERSEN FIX UA4 (AWY-HI) 34,000 ft / 10,363 m 40.86556˚ 30.66611˚ 55 nm 115 nm 288° / 287° -
GAYEM FIX UA4 (AWY-HI) 34,700 ft / 10,577 m 41.04694˚ 29.62861˚ 48 nm 163 nm 283° / 283° -
BKZ VOR UA4 (AWY-HI) 28,800 ft / 8,778 m 41.12694˚ 29.14278˚ 22 nm 186 nm 282° / 282° BEYKOZ VOR-DME
BIG VOR N604 (AWY-LO) 18,500 ft / 5,639 m 40.28528˚ 27.36583˚ 95 nm 281 nm 239° / 237° BIGA VOR-DME
CNK VOR W92 (AWY-LO) 5,500 ft / 1,676 m 40.13630˚ 26.42797˚ 43 nm 325 nm 259° / 258° CANAKKALE VOR-DME
O LTBH APT - 0 ft / 0 m 40.13771˚ 26.42676˚ 0 nm 325 nm 327° / 327° CANAKKALE

Altitude Profile

Advertisement - Login to hide

Weather


0- 5 10 15 20 25 30 35+ Temperature / ° C

Clouds and Precipitation
Forecast for 2017-12-12 00:00 UTC. Updated 2 hours ago

Ground ~20,000 ft ~40,000 ft Winds

LTAC

Details ICAO LTAC (ESB)
Name ESENBOGA
Region Turkey
Timezone Europe/Istanbul (UTC+3.0)
Stats Elevation 3,125 ft / 953 m (AMSL)
Location 40.128285° 32.995403°
Runways 2
Magnetic Variation 5.713° E

METAR

LTAC 112020Z VRB02KT 6000 NSC 01/M01 Q1026 NOSIG

Decode

TAF

Not found

Departure Runways

ID Width Length Bearing (true) Bearing (mag) Surface Threshold Offset Overrun Length
03L 148 ft / 45 m 12,334 ft / 3,760 m 36.19° 30.48° Asphalt 1,148 ft / 350 m 200 ft / 61 m
03R 197 ft / 60 m 12,258 ft / 3,736 m 35.29° 29.58° Asphalt 0 ft / 0 m 200 ft / 61 m
21L 197 ft / 60 m 12,258 ft / 3,736 m 215.31° 209.60° Asphalt 0 ft / 0 m 200 ft / 61 m
21R 148 ft / 45 m 12,334 ft / 3,760 m 216.21° 210.50° Asphalt 0 ft / 0 m 200 ft / 61 m

LTBH

Details ICAO LTBH (CKZ)
Name CANAKKALE
Region Turkey
Timezone Europe/Istanbul (UTC+3.0)
Stats Elevation 23 ft / 7 m (AMSL)
Location 40.137709° 26.426764°
Runways 1
Magnetic Variation 5.031° E

METAR

LTBH 111950Z 20014KT 9999 SCT035 13/07 Q1022

Decode

TAF

Not found

Destination Runways

ID Width Length Bearing (true) Bearing (mag) Surface Threshold Offset Overrun Length
04 98 ft / 30 m 5,905 ft / 1,800 m 41.10° 36.07° Concrete 0 ft / 0 m 100 ft / 30 m
22 98 ft / 30 m 5,905 ft / 1,800 m 221.11° 216.08° Concrete 0 ft / 0 m 100 ft / 30 m

Popular Alternatives